Time;durP1;ratioP1;P1;durP2;ratioP2;P2;SDS_P1;SDS_P2;PMS_P1;PMS_P2;Temp;Humidity;BMP_temperature;BMP_pressure;BME280_temperature;BME280_humidity;BME280_pressure;Samples;Min_cycle;Max_cycle;Signal;HPM_P1;HPM_P2
2023/01/03 00:01:30;;;;;;;16.93;13.33;;;9.90;99.90;;;;;;5050464;28;20627;-51
2023/01/03 00:03:57;;;;;;;14.07;12.57;;;9.90;99.90;;;;;;5050930;28;20181;-54
2023/01/03 00:06:32;;;;;;;12.70;11.40;;;9.90;99.90;;;;;;5050958;28;20237;-53
2023/01/03 00:08:59;;;;;;;12.20;10.97;;;9.90;99.90;;;;;;5051338;28;20662;-50
2023/01/03 00:14:17;;;;;;;11.90;10.70;;;9.80;99.90;;;;;;5051260;28;20210;-54
2023/01/03 00:16:43;;;;;;;13.43;10.47;;;9.80;99.90;;;;;;5033024;28;20210;-51
2023/01/03 00:19:13;;;;;;;11.30;10.10;;;9.90;99.90;;;;;;5051053;28;20172;-53
2023/01/03 00:21:39;;;;;;;13.70;11.50;;;9.80;99.90;;;;;;5051176;28;20171;-54
2023/01/03 00:24:05;;;;;;;11.73;10.53;;;9.80;99.90;;;;;;5050392;28;20660;-52
2023/01/03 00:26:31;;;;;;;11.83;10.63;;;9.80;99.90;;;;;;5050855;28;20203;-52
2023/01/03 00:28:57;;;;;;;11.33;10.20;;;9.80;99.90;;;;;;5050889;28;20232;-54
2023/01/03 00:31:23;;;;;;;13.03;9.47;;;9.70;99.90;;;;;;5054863;28;20694;-51
2023/01/03 00:33:49;;;;;;;10.53;9.43;;;9.60;99.90;;;;;;5054230;28;20175;-51
2023/01/03 00:36:14;;;;;;;10.60;9.30;;;9.80;99.90;;;;;;5054607;28;20190;-53
2023/01/03 00:38:40;;;;;;;11.03;9.83;;;9.80;99.90;;;;;;5054472;28;20254;-51
2023/01/03 00:41:08;;;;;;;11.93;9.57;;;9.80;99.90;;;;;;5054582;28;20229;-51
2023/01/03 00:43:35;;;;;;;10.47;9.37;;;9.80;99.90;;;;;;5054372;28;20633;-50
2023/01/03 00:46:01;;;;;;;10.40;9.30;;;9.80;99.90;;;;;;5054382;28;20256;-52
2023/01/03 00:48:27;;;;;;;10.43;8.93;;;9.80;99.90;;;;;;5054486;28;20179;-54
2023/01/03 00:50:53;;;;;;;10.20;9.10;;;9.80;99.90;;;;;;5053813;28;20286;-53
2023/01/03 00:53:19;;;;;;;9.37;8.40;;;9.80;99.90;;;;;;5054381;28;20199;-55
2023/01/03 00:55:45;;;;;;;9.30;8.40;;;9.80;99.90;;;;;;5053606;28;20199;-54
2023/01/03 00:58:11;;;;;;;9.03;8.13;;;9.90;99.90;;;;;;5054342;28;20178;-54
2023/01/03 01:00:36;;;;;;;9.73;8.73;;;9.90;99.90;;;;;;5054105;28;20729;-51
2023/01/03 01:03:02;;;;;;;9.10;8.20;;;9.90;99.90;;;;;;5054268;28;20183;-51
2023/01/03 01:05:29;;;;;;;10.03;8.60;;;9.80;99.90;;;;;;5053527;28;20636;-51
2023/01/03 01:07:55;;;;;;;9.73;8.67;;;10.00;99.90;;;;;;5054113;28;20645;-51
2023/01/03 01:10:20;;;;;;;10.40;9.40;;;10.00;99.90;;;;;;5053746;28;20191;-55
2023/01/03 01:12:46;;;;;;;9.53;8.53;;;9.90;99.90;;;;;;5053854;28;20655;-53
2023/01/03 01:15:12;;;;;;;9.97;7.87;;;10.00;99.90;;;;;;5053587;28;20544;-53
2023/01/03 01:17:39;;;;;;;10.03;8.80;;;10.00;99.90;;;;;;5053517;28;20488;-49
2023/01/03 01:20:05;;;;;;;9.50;8.20;;;10.00;99.90;;;;;;5054030;28;20182;-53
2023/01/03 01:22:32;;;;;;;9.87;8.37;;;10.10;99.90;;;;;;5053412;28;20186;-54
2023/01/03 01:24:58;;;;;;;9.50;8.50;;;10.00;99.90;;;;;;5053248;28;20193;-51
2023/01/03 01:27:23;;;;;;;8.80;7.80;;;10.00;99.90;;;;;;5053377;28;20660;-52
2023/01/03 01:29:49;;;;;;;9.13;8.03;;;10.00;99.90;;;;;;5053544;28;20219;-54
2023/01/03 01:32:14;;;;;;;9.60;8.60;;;10.00;99.90;;;;;;5053526;28;20179;-50
2023/01/03 01:34:40;;;;;;;9.40;8.40;;;9.90;99.90;;;;;;5052741;28;20233;-54
2023/01/03 01:37:06;;;;;;;8.73;7.83;;;9.90;99.90;;;;;;5053504;28;20626;-54
2023/01/03 01:39:32;;;;;;;8.70;7.83;;;9.90;99.90;;;;;;5053255;28;20179;-54
2023/01/03 01:44:53;;;;;;;12.63;10.93;;;9.90;99.90;;;;;;5053127;28;20186;-50
2023/01/03 01:47:58;;;;;;;12.07;10.87;;;9.80;99.90;;;;;;5053731;28;20295;-53
2023/01/03 01:50:39;;;;;;;14.33;12.93;;;9.70;99.90;;;;;;5053181;28;20202;-50
2023/01/03 01:53:34;;;;;;;14.17;12.67;;;9.60;99.90;;;;;;5053232;28;20171;-54
2023/01/03 01:56:05;;;;;;;16.43;14.77;;;9.60;99.90;;;;;;5048111;28;20680;-51
2023/01/03 01:58:35;;;;;;;16.50;14.90;;;9.50;99.90;;;;;;5053166;28;20250;-54
2023/01/03 02:01:07;;;;;;;17.03;13.30;;;9.50;99.90;;;;;;5053023;28;20560;-52
2023/01/03 02:03:33;;;;;;;15.40;13.23;;;9.50;99.90;;;;;;5053016;28;20190;-56
2023/01/03 02:06:00;;;;;;;13.97;12.57;;;9.50;99.90;;;;;;5052692;28;20552;-51
2023/01/03 02:08:26;;;;;;;15.03;13.27;;;9.50;99.90;;;;;;5052846;28;20183;-53
2023/01/03 02:11:13;;;;;;;14.13;12.43;;;9.40;99.90;;;;;;5052602;28;20610;-55
2023/01/03 02:13:39;;;;;;;13.63;12.17;;;9.50;99.90;;;;;;5052617;28;20544;-51
2023/01/03 02:16:16;;;;;;;13.33;12.00;;;9.50;99.90;;;;;;5052192;28;20202;-51
2023/01/03 02:18:56;;;;;;;13.37;11.97;;;9.50;99.90;;;;;;5052744;28;20548;-53
2023/01/03 02:21:59;;;;;;;13.60;12.20;;;9.50;99.90;;;;;;5052485;28;20261;-51
2023/01/03 02:24:53;;;;;;;14.43;12.47;;;9.50;99.90;;;;;;5052346;28;20193;-51
2023/01/03 02:27:46;;;;;;;13.93;12.43;;;9.50;99.90;;;;;;5052211;28;20195;-50
2023/01/03 02:30:32;;;;;;;12.93;11.40;;;9.40;99.90;;;;;;5052335;28;20289;-53
2023/01/03 02:33:21;;;;;;;13.90;12.50;;;9.30;99.90;;;;;;5051495;28;20175;-51
2023/01/03 02:35:53;;;;;;;12.50;11.20;;;9.30;99.90;;;;;;5051282;28;20211;-51
2023/01/03 02:38:28;;;;;;;13.40;11.37;;;9.20;99.90;;;;;;5052017;28;20168;-51
2023/01/03 02:41:21;;;;;;;14.03;12.60;;;9.20;99.90;;;;;;5052360;28;20420;-51
2023/01/03 02:44:05;;;;;;;13.60;12.10;;;9.20;99.90;;;;;;4951602;29;20802;-51
2023/01/03 02:46:41;;;;;;;11.70;10.40;;;9.40;99.90;;;;;;4951949;29;20390;-52
2023/01/03 02:49:15;;;;;;;12.40;10.67;;;9.30;99.90;;;;;;4951703;29;20202;-51
2023/01/03 02:52:06;;;;;;;12.73;10.20;;;9.20;99.90;;;;;;4952034;29;20695;-50
2023/01/03 02:54:55;;;;;;;11.93;10.33;;;9.40;99.90;;;;;;4950076;29;20182;-51
2023/01/03 02:57:25;;;;;;;12.47;11.17;;;9.40;99.90;;;;;;4951892;29;20650;-51
2023/01/03 03:00:02;;;;;;;12.13;10.83;;;9.40;99.90;;;;;;4951583;29;20186;-54
2023/01/03 03:02:31;;;;;;;12.77;11.40;;;9.40;99.90;;;;;;4932623;29;20191;-54
2023/01/03 03:04:59;;;;;;;14.53;12.40;;;9.40;99.90;;;;;;4931910;29;20190;-51
2023/01/03 03:07:33;;;;;;;14.07;11.40;;;9.80;99.90;;;;;;4932517;29;20576;-51
2023/01/03 03:15:36;;;;;;;12.67;11.37;;;9.20;99.90;;;;;;4932142;29;20246;-51
2023/01/03 03:18:08;;;;;;;12.87;11.43;;;9.10;99.90;;;;;;4932553;29;20289;-50
2023/01/03 03:26:11;;;;;;;13.67;12.27;;;9.20;99.90;;;;;;5009728;28;20250;-53
2023/01/03 03:28:42;;;;;;;13.17;10.97;;;9.30;99.90;;;;;;5009954;28;20207;-51
2023/01/03 03:31:22;;;;;;;11.83;10.63;;;9.30;99.90;;;;;;5009544;28;20736;-51
2023/01/03 03:33:58;;;;;;;12.53;11.23;;;9.30;99.90;;;;;;5036156;28;20182;-52
2023/01/03 03:37:02;;;;;;;13.23;11.80;;;9.30;99.90;;;;;;5051105;28;20187;-52
2023/01/03 03:45:39;;;;;;;11.27;10.07;;;9.00;99.90;;;;;;4950593;29;20193;-51
2023/01/03 03:48:22;;;;;;;14.97;9.97;;;8.90;99.90;;;;;;4951071;29;20182;-51
2023/01/03 03:50:56;;;;;;;13.47;9.50;;;8.90;99.90;;;;;;4951360;29;20246;-50
2023/01/03 03:53:26;;;;;;;10.27;9.17;;;8.90;99.90;;;;;;4950893;29;20186;-51
2023/01/03 03:55:58;;;;;;;11.90;9.83;;;9.50;99.90;;;;;;4950922;29;20791;-51
2023/01/03 03:58:30;;;;;;;11.23;9.73;;;8.80;99.90;;;;;;4950938;29;20179;-52
2023/01/03 04:00:57;;;;;;;11.43;9.87;;;8.70;99.90;;;;;;4951313;29;20667;-51
2023/01/03 04:03:23;;;;;;;11.53;9.67;;;8.80;99.90;;;;;;4950942;29;20275;-50
2023/01/03 04:06:01;;;;;;;10.37;9.03;;;9.10;99.90;;;;;;4953768;28;20580;-55
2023/01/03 04:08:26;;;;;;;12.37;9.43;;;8.80;99.90;;;;;;4954776;29;20278;-51
2023/01/03 04:11:04;;;;;;;13.90;10.03;;;8.60;99.90;;;;;;4954770;29;20703;-53
2023/01/03 04:13:33;;;;;;;12.60;9.23;;;9.00;99.90;;;;;;4992490;28;20529;-52
2023/01/03 04:18:32;;;;;;;10.07;8.93;;;10.10;99.90;;;;;;5068715;22;20623;-90
2023/01/03 04:20:58;;;;;;;10.57;9.47;;;8.80;99.90;;;;;;5055198;28;20210;-91
2023/01/03 04:23:24;;;;;;;12.77;9.83;;;8.90;99.90;;;;;;5055044;28;20198;-90
2023/01/03 04:25:49;;;;;;;11.07;9.90;;;8.90;99.90;;;;;;5054926;28;20182;-91
2023/01/03 04:28:16;;;;;;;11.87;9.40;;;8.40;99.90;;;;;;5055067;28;20179;-92
2023/01/03 04:30:42;;;;;;;12.23;10.33;;;8.90;99.90;;;;;;5054541;28;20206;-92
2023/01/03 04:33:10;;;;;;;11.90;9.93;;;8.90;99.90;;;;;;5054353;28;20173;-91
2023/01/03 04:35:36;;;;;;;11.43;9.67;;;11.20;99.90;;;;;;5054686;28;20225;-92
2023/01/03 04:38:03;;;;;;;12.73;10.40;;;9.20;99.90;;;;;;5054824;28;20182;-90
2023/01/03 04:40:29;;;;;;;11.37;10.20;;;9.20;99.90;;;;;;5054679;28;20524;-91
2023/01/03 04:45:39;;;;;;;10.73;9.10;;;9.20;99.90;;;;;;5055715;28;20258;-90
2023/01/03 04:48:05;;;;;;;11.53;9.73;;;9.40;99.90;;;;;;5054887;28;20530;-92
2023/01/03 04:50:32;;;;;;;9.80;8.80;;;9.20;99.90;;;;;;5054724;28;20553;-91
2023/01/03 04:52:58;;;;;;;12.37;10.70;;;9.50;99.90;;;;;;5054471;28;20175;-90
2023/01/03 04:55:24;;;;;;;10.80;9.33;;;9.60;99.90;;;;;;5054246;28;20182;-92
2023/01/03 04:57:51;;;;;;;11.97;10.27;;;9.60;99.90;;;;;;5054227;28;20258;-91
2023/01/03 05:00:17;;;;;;;10.57;9.47;;;9.80;99.90;;;;;;5054628;28;20182;-91
2023/01/03 05:02:43;;;;;;;12.07;9.70;;;9.90;99.90;;;;;;5054444;28;20202;-92
2023/01/03 05:05:09;;;;;;;13.10;10.30;;;9.90;99.90;;;;;;5054043;28;20206;-91
2023/01/03 05:07:35;;;;;;;12.23;9.80;;;9.90;99.90;;;;;;5054594;28;20217;-90
2023/01/03 05:10:01;;;;;;;11.67;10.07;;;9.90;99.90;;;;;;5053479;28;20234;-90
2023/01/03 05:12:27;;;;;;;11.53;10.30;;;10.00;99.90;;;;;;5054151;28;20175;-90
2023/01/03 05:14:53;;;;;;;12.40;10.40;;;10.00;99.90;;;;;;5053825;28;20175;-90
2023/01/03 05:17:21;;;;;;;11.03;9.33;;;10.00;99.90;;;;;;5053429;28;20682;-89
2023/01/03 05:28:01;;;;;;;12.13;10.40;;;9.90;99.90;;;;;;5055264;28;20158;-91
2023/01/03 05:30:27;;;;;;;11.00;9.90;;;9.90;99.90;;;;;;5053511;28;20237;-91
2023/01/03 05:32:54;;;;;;;11.73;10.20;;;9.10;99.90;;;;;;5053827;28;20171;-91
2023/01/03 05:35:20;;;;;;;11.43;10.03;;;9.90;99.90;;;;;;5053558;28;20558;-91
2023/01/03 05:37:46;;;;;;;11.20;10.00;;;10.00;99.90;;;;;;5053992;28;20171;-91
2023/01/03 05:40:13;;;;;;;11.90;10.63;;;9.90;99.90;;;;;;5053667;28;20186;-91
2023/01/03 05:42:39;;;;;;;10.43;9.33;;;9.80;99.90;;;;;;5053761;28;20595;-92
2023/01/03 05:45:06;;;;;;;10.67;9.57;;;9.80;99.90;;;;;;5053514;28;20623;-90
2023/01/03 05:47:32;;;;;;;10.23;9.23;;;7.70;99.90;;;;;;5069380;28;20437;-91
2023/01/03 05:49:57;;;;;;;11.67;10.00;;;8.60;99.90;;;;;;5052773;28;20207;-91
2023/01/03 05:52:23;;;;;;;10.67;9.33;;;9.70;99.90;;;;;;5052810;28;20610;-91
2023/01/03 05:54:49;;;;;;;11.07;9.97;;;;;;;;;;5052577;28;20208;-90
2023/01/03 05:57:15;;;;;;;12.13;10.50;;;;;;;;;;5052945;28;20186;-89
2023/01/03 05:59:41;;;;;;;10.03;9.03;;;9.50;99.90;;;;;;5053235;28;20178;-90
2023/01/03 06:02:06;;;;;;;10.13;8.90;;;9.50;99.90;;;;;;5052656;28;20534;-90
2023/01/03 06:04:32;;;;;;;10.03;8.97;;;9.60;99.90;;;;;;5053259;28;20244;-91
2023/01/03 06:06:58;;;;;;;10.53;9.27;;;9.70;99.90;;;;;;5053558;28;20562;-91
2023/01/03 06:09:24;;;;;;;10.87;8.40;;;9.70;99.90;;;;;;5052844;28;20199;-91
2023/01/03 06:11:50;;;;;;;11.70;7.80;;;8.90;99.90;;;;;;5053154;28;20258;-90
2023/01/03 06:14:16;;;;;;;9.17;7.40;;;;;;;;;;5052515;28;20176;-92
2023/01/03 06:19:27;;;;;;;7.70;6.90;;;9.90;99.90;;;;;;5054293;28;20162;-91
2023/01/03 06:21:53;;;;;;;10.40;8.10;;;9.90;99.90;;;;;;5053250;28;20171;-90
2023/01/03 06:24:18;;;;;;;9.77;8.77;;;9.80;99.90;;;;;;5052572;28;20206;-92
2023/01/03 06:26:44;;;;;;;13.23;11.13;;;9.90;99.90;;;;;;5052570;28;20194;-90
2023/01/03 06:29:10;;;;;;;11.30;9.80;;;9.90;99.90;;;;;;5052410;28;20496;-90
2023/01/03 06:31:36;;;;;;;12.20;10.00;;;9.80;99.90;;;;;;5052583;28;20175;-91
2023/01/03 06:34:03;;;;;;;12.23;10.27;;;9.70;99.90;;;;;;5052558;28;20167;-93
2023/01/03 06:36:30;;;;;;;10.80;9.37;;;9.70;99.90;;;;;;5052680;28;20221;-91
2023/01/03 06:38:57;;;;;;;13.40;9.97;;;9.70;99.90;;;;;;5052877;28;20262;-91
2023/01/03 06:41:23;;;;;;;12.63;11.33;;;9.60;99.90;;;;;;5052513;28;20261;-91
2023/01/03 06:43:49;;;;;;;11.73;10.53;;;9.60;99.90;;;;;;5052366;28;20661;-90
2023/01/03 06:54:30;;;;;;;11.10;9.90;;;9.70;99.90;;;;;;5053259;28;20171;-90
2023/01/03 06:56:57;;;;;;;12.37;10.43;;;9.90;99.90;;;;;;5052464;28;20631;-91
2023/01/03 06:59:24;;;;;;;11.17;9.73;;;9.70;99.90;;;;;;5052375;28;20262;-89
2023/01/03 07:01:51;;;;;;;11.97;10.23;;;9.60;99.90;;;;;;5052393;28;20182;-91
2023/01/03 07:04:18;;;;;;;11.90;9.50;;;9.80;99.90;;;;;;5052028;28;20179;-90
2023/01/03 07:06:44;;;;;;;11.30;9.67;;;9.60;99.90;;;;;;5052028;28;20175;-90
2023/01/03 07:09:11;;;;;;;11.93;10.63;;;;;;;;;;5051795;28;20533;-92
2023/01/03 07:11:37;;;;;;;11.50;10.17;;;9.60;99.90;;;;;;5052304;28;20199;-93
2023/01/03 07:14:04;;;;;;;12.00;10.73;;;9.80;99.90;;;;;;5051555;28;20174;-91
2023/01/03 07:16:33;;;;;;;11.50;9.43;;;9.70;99.90;;;;;;5051843;28;20174;-91
2023/01/03 07:18:59;;;;;;;11.17;9.70;;;9.70;99.90;;;;;;5051725;28;20171;-92
2023/01/03 07:21:26;;;;;;;13.80;9.33;;;9.70;99.90;;;;;;5052366;28;20186;-92
2023/01/03 07:23:53;;;;;;;11.30;9.33;;;10.00;99.90;;;;;;5051241;28;20186;-91
2023/01/03 07:26:29;;;;;;;12.17;10.33;;;9.80;99.90;;;;;;5051981;28;20193;-91
2023/01/03 07:28:56;;;;;;;12.20;9.43;;;9.80;99.90;;;;;;5051746;28;20174;-91
2023/01/03 07:31:24;;;;;;;11.03;9.83;;;9.80;99.90;;;;;;5052065;28;20175;-90
2023/01/03 07:33:51;;;;;;;10.87;9.60;;;;;;;;;;5051755;28;20173;-91
2023/01/03 07:36:18;;;;;;;11.23;9.50;;;9.90;99.90;;;;;;5051656;28;20589;-90
2023/01/03 07:38:46;;;;;;;11.87;10.20;;;9.90;99.90;;;;;;5052163;28;20206;-91
2023/01/03 07:41:13;;;;;;;10.80;9.70;;;9.70;99.90;;;;;;5055843;28;20225;-91
2023/01/03 07:43:43;;;;;;;10.23;9.13;;;9.80;99.90;;;;;;5056045;28;20167;-92
2023/01/03 07:46:21;;;;;;;12.07;10.37;;;9.80;99.90;;;;;;5055744;28;20175;-92
2023/01/03 07:48:51;;;;;;;10.87;9.63;;;9.70;99.90;;;;;;5055777;28;20178;-90
2023/01/03 07:51:21;;;;;;;10.83;9.20;;;9.70;99.90;;;;;;5055819;28;20207;-92
2023/01/03 07:53:51;;;;;;;11.87;9.87;;;9.70;99.90;;;;;;5055825;28;20171;-91
2023/01/03 07:56:20;;;;;;;10.77;9.43;;;8.00;99.90;;;;;;5055504;28;20193;-91
2023/01/03 07:58:48;;;;;;;10.07;9.13;;;9.50;99.90;;;;;;5055548;28;20262;-91
2023/01/03 08:01:16;;;;;;;11.80;10.50;;;9.50;99.90;;;;;;5055771;28;20179;-91
2023/01/03 08:03:43;;;;;;;10.73;9.63;;;7.60;99.90;;;;;;5055435;28;20240;-91
2023/01/03 08:06:12;;;;;;;11.63;9.97;;;8.10;99.90;;;;;;5056861;28;20649;-91
2023/01/03 08:08:39;;;;;;;13.43;10.93;;;;;;;;;;5056157;28;20184;-91
2023/01/03 08:13:50;;;;;;;10.50;9.43;;;;;;;;;;5056510;28;20213;-91
2023/01/03 08:16:17;;;;;;;11.70;9.37;;;9.80;99.90;;;;;;5055297;28;20179;-91
2023/01/03 08:18:44;;;;;;;10.27;9.27;;;9.70;99.90;;;;;;5055149;28;20183;-90
2023/01/03 08:21:12;;;;;;;10.17;9.00;;;9.80;99.90;;;;;;5056043;28;20171;-91
2023/01/03 08:23:39;;;;;;;10.43;9.10;;;;;;;;;;5054984;28;20277;-91
2023/01/03 08:26:09;;;;;;;10.87;8.63;;;9.80;99.90;;;;;;5054833;28;20167;-92
2023/01/03 08:28:36;;;;;;;9.83;8.83;;;12.10;99.90;;;;;;5055052;28;20207;-91
2023/01/03 08:31:15;;;;;;;11.03;9.10;;;9.80;99.90;;;;;;5054990;28;20207;-92
2023/01/03 08:33:50;;;;;;;11.73;9.77;;;9.90;99.90;;;;;;5054703;28;20225;-92
2023/01/03 08:36:18;;;;;;;9.97;8.90;;;9.90;99.90;;;;;;5054739;28;20177;-90
2023/01/03 08:38:50;;;;;;;9.67;8.67;;;10.00;99.90;;;;;;5054391;28;20618;-91
2023/01/03 08:41:19;;;;;;;10.00;8.13;;;10.10;99.90;;;;;;5055005;28;20512;-91
2023/01/03 08:43:47;;;;;;;11.30;8.60;;;10.00;99.90;;;;;;5054672;28;20181;-91
2023/01/03 08:46:14;;;;;;;9.90;8.90;;;;;;;;;;5054564;28;20171;-91
2023/01/03 08:48:40;;;;;;;9.53;8.10;;;10.00;99.90;;;;;;5054717;28;20615;-90
2023/01/03 08:51:08;;;;;;;10.37;8.47;;;8.30;99.90;;;;;;5052991;28;20643;-91
2023/01/03 08:53:34;;;;;;;9.73;8.37;;;10.00;99.90;;;;;;5054299;28;20167;-91
2023/01/03 08:56:00;;;;;;;9.87;8.57;;;;;;;;;;5054345;28;20167;-91
2023/01/03 08:58:26;;;;;;;9.23;7.87;;;9.90;99.90;;;;;;5055680;28;20178;-92
2023/01/03 09:00:52;;;;;;;11.40;9.20;;;9.90;99.90;;;;;;5054306;28;20183;-91
2023/01/03 09:03:18;;;;;;;10.90;9.80;;;9.90;99.90;;;;;;5054521;28;20168;-90
2023/01/03 09:05:44;;;;;;;10.20;9.20;;;9.90;99.90;;;;;;5053926;28;20182;-91
2023/01/03 09:08:10;;;;;;;10.30;9.30;;;9.90;99.90;;;;;;5054286;28;20175;-91
2023/01/03 09:10:38;;;;;;;10.47;9.03;;;10.00;99.90;;;;;;5054367;28;20199;-90
2023/01/03 09:13:05;;;;;;;9.97;8.43;;;10.00;99.90;;;;;;5054142;28;20190;-91
2023/01/03 09:15:31;;;;;;;8.03;7.23;;;10.00;99.90;;;;;;5053947;28;20167;-90
2023/01/03 09:17:57;;;;;;;8.97;8.07;;;9.90;99.90;;;;;;5054037;28;20285;-91
2023/01/03 09:20:23;;;;;;;9.43;8.53;;;10.10;99.90;;;;;;5054138;28;20213;-91
2023/01/03 09:22:49;;;;;;;8.90;8.00;;;8.20;99.90;;;;;;5053672;28;20206;-91
2023/01/03 09:25:15;;;;;;;7.80;7.00;;;10.10;99.90;;;;;;5053994;28;20175;-91
2023/01/03 09:27:47;;;;;;;8.17;7.03;;;10.20;99.90;;;;;;5053759;28;20217;-91
2023/01/03 09:30:14;;;;;;;7.67;6.87;;;10.40;99.90;;;;;;5053907;28;20285;-92
2023/01/03 09:32:40;;;;;;;8.00;7.20;;;;;;;;;;5054125;28;20171;-91
2023/01/03 09:35:07;;;;;;;8.03;6.67;;;;;;;;;;5053414;28;20175;-91
2023/01/03 09:37:33;;;;;;;7.33;6.60;;;10.50;99.90;;;;;;5053920;28;20182;-91
2023/01/03 09:39:59;;;;;;;9.77;6.93;;;10.70;99.90;;;;;;5053697;28;20172;-91
2023/01/03 09:45:33;;;;;;;7.97;6.87;;;10.50;99.90;;;;;;5054746;28;20213;-91
2023/01/03 09:48:02;;;;;;;9.80;7.57;;;10.40;99.90;;;;;;5053716;28;20176;-91
2023/01/03 09:50:32;;;;;;;9.60;8.67;;;10.20;99.90;;;;;;5053384;28;20234;-91
2023/01/03 10:04:32;;;;;;;10.03;9.03;;;9.80;99.90;;;;;;5051850;28;20328;-91
2023/01/03 10:07:06;;;;;;;10.23;9.03;;;10.10;99.90;;;;;;5044886;28;20274;-90
2023/01/03 10:09:59;;;;;;;10.30;9.20;;;9.70;99.90;;;;;;5050366;28;20195;-91
2023/01/03 10:12:46;;;;;;;11.57;9.40;;;8.00;99.90;;;;;;5042972;28;20182;-91
2023/01/03 10:15:23;;;;;;;10.27;9.27;;;9.70;99.90;;;;;;5051445;28;20171;-90
2023/01/03 10:18:07;;;;;;;11.07;9.13;;;9.70;99.90;;;;;;5042273;28;20629;-91
2023/01/03 10:20:49;;;;;;;9.97;8.97;;;9.80;99.90;;;;;;5051663;28;20178;-90
2023/01/03 10:23:15;;;;;;;10.33;9.27;;;9.80;99.90;;;;;;5049435;28;20189;-91
2023/01/03 10:25:44;;;;;;;9.33;8.43;;;9.90;99.90;;;;;;5037014;28;20171;-90
2023/01/03 10:28:34;;;;;;;9.50;8.40;;;10.20;99.90;;;;;;5044344;28;20160;-92
2023/01/03 10:31:43;;;;;;;10.57;8.77;;;10.00;99.90;;;;;;5047947;28;20198;-91
2023/01/03 10:34:10;;;;;;;10.30;8.50;;;10.00;99.90;;;;;;5045326;28;20175;-90
2023/01/03 10:36:36;;;;;;;10.20;9.10;;;10.00;99.90;;;;;;5052873;28;20171;-92
2023/01/03 10:39:09;;;;;;;9.83;8.63;;;10.00;99.90;;;;;;5036661;28;20194;-90
2023/01/03 10:41:47;;;;;;;9.80;8.80;;;10.10;99.90;;;;;;5052328;28;20171;-90
2023/01/03 10:44:29;;;;;;;9.27;8.37;;;10.50;99.90;;;;;;5052469;28;20631;-91
2023/01/03 10:47:15;;;;;;;9.13;8.23;;;10.20;99.90;;;;;;5052513;28;20182;-91
2023/01/03 10:49:45;;;;;;;9.43;8.43;;;9.20;99.90;;;;;;5052402;28;20252;-92
2023/01/03 10:52:18;;;;;;;9.90;8.87;;;10.40;99.90;;;;;;5052558;28;20766;-90
2023/01/03 10:55:11;;;;;;;9.20;8.20;;;9.10;99.90;;;;;;5052062;28;20262;-92
2023/01/03 10:57:38;;;;;;;9.00;8.03;;;;;;;;;;5052431;28;20178;-92
2023/01/03 11:00:22;;;;;;;9.17;8.10;;;10.60;99.90;;;;;;5052330;28;20175;-91
2023/01/03 11:02:49;;;;;;;10.07;7.70;;;10.60;99.90;;;;;;5052345;28;20178;-91
2023/01/03 11:05:24;;;;;;;8.80;7.90;;;9.80;99.90;;;;;;5045382;28;20191;-91
2023/01/03 11:08:00;;;;;;;8.40;7.53;;;10.00;99.90;;;;;;5032149;28;20171;-91
2023/01/03 11:10:47;;;;;;;9.50;8.00;;;9.80;99.90;;;;;;5032618;28;20227;-91
2023/01/03 11:13:37;;;;;;;8.77;7.87;;;9.70;99.90;;;;;;5032400;28;20194;-92
2023/01/03 11:16:13;;;;;;;10.27;8.63;;;9.70;99.90;;;;;;5027316;28;20210;-91
2023/01/03 11:18:40;;;;;;;9.10;8.20;;;7.90;99.90;;;;;;5032819;28;20242;-91
2023/01/03 11:21:12;;;;;;;10.67;9.57;;;9.50;99.90;;;;;;5034917;28;20168;-90
2023/01/03 11:23:54;;;;;;;11.50;9.90;;;9.60;99.90;;;;;;5031977;28;20176;-90
2023/01/03 11:26:44;;;;;;;9.37;8.47;;;9.80;99.90;;;;;;5032184;28;20176;-90
2023/01/03 11:29:41;;;;;;;11.37;9.23;;;9.90;99.90;;;;;;5031087;28;20520;-90
2023/01/03 11:32:31;;;;;;;10.47;9.37;;;10.00;99.90;;;;;;5031966;28;20182;-90
2023/01/03 11:35:15;;;;;;;9.87;8.87;;;9.50;99.90;;;;;;5031216;28;20377;-90
2023/01/03 11:38:19;;;;;;;10.13;9.07;;;9.90;99.90;;;;;;5059923;28;20178;-90
2023/01/03 11:40:45;;;;;;;9.63;8.63;;;;;;;;;;5068124;28;20178;-91
2023/01/03 11:43:11;;;;;;;10.23;9.13;;;;;;;;;;5038304;28;20741;-90
2023/01/03 11:45:39;;;;;;;8.43;7.50;;;10.00;99.90;;;;;;5040581;28;20187;-90
2023/01/03 11:48:46;;;;;;;8.60;7.70;;;9.80;99.90;;;;;;5039741;28;20164;-90
2023/01/03 11:51:39;;;;;;;8.77;7.50;;;9.90;99.90;;;;;;5036811;28;20237;-90
2023/01/03 11:54:06;;;;;;;9.00;6.87;;;9.90;99.90;;;;;;5064704;28;20194;-90
2023/01/03 11:56:43;;;;;;;8.63;7.83;;;9.90;99.90;;;;;;5042054;28;20616;-91
2023/01/03 11:59:40;;;;;;;8.70;7.80;;;10.60;99.90;;;;;;5041744;28;20174;-90
2023/01/03 12:02:28;;;;;;;7.63;6.93;;;10.00;99.90;;;;;;5039487;28;20259;-90
2023/01/03 12:05:15;;;;;;;9.13;7.40;;;10.10;99.90;;;;;;5040288;28;20693;-92
2023/01/03 12:08:07;;;;;;;8.03;7.23;;;9.50;99.90;;;;;;5042314;28;20194;-91
2023/01/03 12:11:02;;;;;;;8.93;7.37;;;9.70;99.90;;;;;;5042699;28;20687;-91
2023/01/03 12:13:52;;;;;;;8.23;7.30;;;9.60;99.90;;;;;;5050847;28;20182;-90
2023/01/03 12:16:30;;;;;;;8.50;7.20;;;9.70;99.90;;;;;;5051124;28;20182;-90
2023/01/03 12:19:05;;;;;;;8.80;7.83;;;9.80;99.90;;;;;;5050963;28;20189;-91
2023/01/03 12:21:36;;;;;;;8.37;7.47;;;9.90;99.90;;;;;;5051550;28;20210;-91
2023/01/03 12:24:06;;;;;;;8.03;7.10;;;9.70;99.90;;;;;;5050969;28;20175;-90
2023/01/03 12:26:35;;;;;;;7.60;6.80;;;9.80;99.90;;;;;;5046548;28;20654;-91
2023/01/03 12:29:01;;;;;;;8.10;7.00;;;;;;;;;;5051693;28;20163;-90
2023/01/03 12:31:42;;;;;;;8.17;7.20;;;9.80;99.90;;;;;;5049652;28;20240;-91
2023/01/03 12:34:24;;;;;;;7.67;6.87;;;9.90;99.90;;;;;;5047579;28;20168;-92
2023/01/03 12:36:56;;;;;;;7.33;6.63;;;9.90;99.90;;;;;;5042941;28;20175;-91
2023/01/03 12:39:56;;;;;;;7.23;6.53;;;10.00;99.90;;;;;;5053821;28;20218;-91
2023/01/03 12:42:28;;;;;;;7.80;7.00;;;9.90;99.90;;;;;;5047828;28;20182;-90
2023/01/03 12:45:07;;;;;;;7.30;6.60;;;9.80;99.90;;;;;;5042278;28;20185;-90
2023/01/03 12:48:01;;;;;;;7.83;7.00;;;9.50;99.90;;;;;;5050277;28;20611;-91
2023/01/03 12:50:35;;;;;;;8.27;7.43;;;9.60;99.90;;;;;;5042988;28;20484;-91
2023/01/03 12:53:29;;;;;;;8.37;7.53;;;9.70;99.90;;;;;;5049301;28;20175;-90
2023/01/03 12:56:32;;;;;;;7.80;7.00;;;9.80;99.90;;;;;;5052414;28;20171;-89
2023/01/03 12:59:18;;;;;;;7.67;6.97;;;9.70;99.90;;;;;;5039865;28;20171;-90
2023/01/03 13:01:52;;;;;;;7.77;6.97;;;9.70;99.90;;;;;;5051560;28;20176;-91
2023/01/03 13:04:26;;;;;;;8.17;7.37;;;9.70;99.90;;;;;;5049821;28;20190;-90
2023/01/03 13:06:58;;;;;;;7.67;6.87;;;9.80;99.90;;;;;;5052346;28;20240;-91
2023/01/03 13:09:35;;;;;;;7.77;6.97;;;9.90;99.90;;;;;;5051552;28;20179;-91
2023/01/03 13:12:18;;;;;;;8.47;7.67;;;9.80;99.90;;;;;;5050778;28;20186;-90
2023/01/03 13:14:56;;;;;;;7.53;6.83;;;9.70;99.90;;;;;;5050279;28;20171;-92
2023/01/03 13:17:25;;;;;;;8.40;7.60;;;9.70;99.90;;;;;;5049515;28;20240;-90
2023/01/03 13:19:59;;;;;;;8.50;7.33;;;9.60;99.90;;;;;;5048518;28;20220;-90
2023/01/03 13:25:46;;;;;;;7.90;7.13;;;9.60;99.90;;;;;;5015986;28;20199;-92
2023/01/03 13:28:23;;;;;;;8.50;7.53;;;9.50;99.90;;;;;;5014828;28;20615;-93
2023/01/03 13:30:49;;;;;;;7.33;6.63;;;;;;;;;;5013930;28;20247;-90
2023/01/03 13:33:19;;;;;;;8.13;7.23;;;9.50;99.90;;;;;;5012200;28;20180;-91
2023/01/03 13:35:47;;;;;;;8.07;6.63;;;9.50;99.90;;;;;;4996103;28;20667;-91
2023/01/03 13:38:18;;;;;;;7.30;6.60;;;9.40;99.90;;;;;;5012107;28;20211;-93
2023/01/03 13:40:48;;;;;;;7.23;6.47;;;9.50;99.90;;;;;;5013374;28;20699;-93
2023/01/03 13:43:17;;;;;;;7.63;6.93;;;9.50;99.90;;;;;;4996561;28;20269;-91
2023/01/03 13:45:45;;;;;;;8.13;6.40;;;9.60;99.90;;;;;;4996295;28;20660;-91
2023/01/03 13:48:26;;;;;;;8.23;7.00;;;10.00;99.90;;;;;;5011841;28;20275;-89
2023/01/03 13:51:21;;;;;;;7.33;6.47;;;9.40;99.90;;;;;;4992434;28;20203;-88
2023/01/03 13:54:34;;;;;;;7.27;6.23;;;9.70;99.90;;;;;;4993702;28;20184;-90
2023/01/03 13:57:25;;;;;;;7.10;6.40;;;9.40;99.90;;;;;;4976669;28;20649;-90
2023/01/03 13:59:51;;;;;;;8.13;6.27;;;;;;;;;;4974454;28;20589;-89
2023/01/03 14:02:59;;;;;;;7.23;6.53;;;9.30;99.90;;;;;;5019467;28;20186;-88
2023/01/03 14:05:56;;;;;;;6.70;6.07;;;9.10;99.90;;;;;;5051337;28;20175;-90
2023/01/03 14:08:36;;;;;;;7.17;6.43;;;9.10;99.90;;;;;;5052785;28;20565;-88
2023/01/03 14:11:41;;;;;;;7.97;6.73;;;8.90;99.90;;;;;;5052071;28;20206;-90
2023/01/03 14:14:12;;;;;;;6.57;5.97;;;9.00;99.90;;;;;;5044016;28;20650;-90
2023/01/03 14:16:44;;;;;;;7.03;6.33;;;8.90;99.90;;;;;;5044004;28;20186;-89
2023/01/03 14:19:36;;;;;;;7.57;6.50;;;9.70;99.90;;;;;;5060119;28;20174;-89
2023/01/03 14:22:20;;;;;;;7.13;6.43;;;8.90;99.90;;;;;;5044520;28;20511;-89
2023/01/03 14:24:56;;;;;;;8.37;6.43;;;9.20;99.90;;;;;;5047690;28;20229;-91
2023/01/03 14:27:30;;;;;;;7.00;6.30;;;9.30;99.90;;;;;;5042519;28;21073;-90
2023/01/03 14:29:56;;;;;;;7.40;6.60;;;;;;;;;;5047923;28;20659;-89